createdAt,value
2023-04-18T00:01:03.284Z,83.38
2023-04-18T00:03:36.886Z,83.31
2023-04-18T00:06:10.457Z,83.17
2023-04-18T00:08:42.861Z,83.06
2023-04-18T00:11:26.753Z,82.98
2023-04-18T00:13:59.623Z,82.97
2023-04-18T00:16:34.993Z,83.03
2023-04-18T00:19:10.438Z,83.09
2023-04-18T00:21:48.222Z,83.21
2023-04-18T00:24:20.822Z,83.35
2023-04-18T00:26:53.454Z,83.48
2023-04-18T00:29:26.145Z,83.59
2023-04-18T00:31:58.949Z,83.62
2023-04-18T00:34:32.389Z,83.62
2023-04-18T00:37:08.796Z,83.63
2023-04-18T00:39:41.287Z,83.57
2023-04-18T00:42:25.546Z,83.46
2023-04-18T00:45:02.143Z,83.38
2023-04-18T00:47:37.732Z,83.27
2023-04-18T00:50:30.934Z,83.26
2023-04-18T00:53:10.349Z,83.28
2023-04-18T00:55:44.182Z,83.29
2023-04-18T00:58:19.942Z,83.20
2023-04-18T01:00:54.817Z,83.07
2023-04-18T01:03:34.842Z,83.02
2023-04-18T01:06:08.067Z,83.02
2023-04-18T01:08:41.272Z,83.06
2023-04-18T01:11:16.941Z,83.11
2023-04-18T01:14:02.988Z,83.07
2023-04-18T01:16:40.974Z,83.10
2023-04-18T01:19:13.630Z,83.12
2023-04-18T01:21:49.491Z,83.15
2023-04-18T01:24:24.941Z,83.19
2023-04-18T01:27:17.781Z,83.20
2023-04-18T01:29:50.490Z,83.16
2023-04-18T01:32:24.101Z,83.15
2023-04-18T01:35:09.468Z,83.12
2023-04-18T01:37:45.249Z,83.11
2023-04-18T01:40:39.144Z,83.14
2023-04-18T01:43:12.012Z,83.15
2023-04-18T01:46:04.876Z,83.21
2023-04-18T01:48:49.131Z,83.23
2023-04-18T01:51:21.899Z,83.25
2023-04-18T01:54:04.722Z,83.37
2023-04-18T01:56:39.723Z,83.58
2023-04-18T01:59:17.491Z,83.48
2023-04-18T02:01:55.955Z,83.26
2023-04-18T02:04:30.394Z,83.15
2023-04-18T02:07:06.198Z,82.88
2023-04-18T02:09:39.721Z,82.58
2023-04-18T02:12:18.026Z,82.29
2023-04-18T02:14:55.640Z,82.13
2023-04-18T02:17:32.195Z,82.23
2023-04-18T02:20:11.208Z,82.39
2023-04-18T02:22:50.564Z,82.55
2023-04-18T02:25:29.078Z,82.68
2023-04-18T02:28:13.353Z,82.91
2023-04-18T02:31:06.347Z,83.06
2023-04-18T02:33:42.266Z,83.31
2023-04-18T02:36:18.030Z,83.22
2023-04-18T02:39:00.911Z,83.24
2023-04-18T02:41:37.895Z,83.31
2023-04-18T02:44:21.199Z,83.35
2023-04-18T02:46:57.336Z,83.47
2023-04-18T02:49:29.708Z,83.56
2023-04-18T02:52:12.415Z,83.62
2023-04-18T02:54:55.956Z,83.68
2023-04-18T02:57:42.119Z,83.76
2023-04-18T03:00:34.589Z,83.83
2023-04-18T03:03:27.810Z,83.89
2023-04-18T03:06:21.662Z,84.21
2023-04-18T03:08:58.807Z,84.25
2023-04-18T03:11:41.721Z,83.79
2023-04-18T03:14:35.281Z,83.52
2023-04-18T03:17:28.058Z,83.55
2023-04-18T03:20:24.215Z,83.62
2023-04-18T03:23:17.025Z,83.71
2023-04-18T03:26:13.221Z,83.84
2023-04-18T03:28:49.857Z,83.83
2023-04-18T03:31:43.481Z,83.78
2023-04-18T03:34:27.495Z,83.83
2023-04-18T03:37:00.352Z,83.77
2023-04-18T03:39:36.972Z,83.84
2023-04-18T03:42:12.581Z,83.87
2023-04-18T03:44:46.060Z,83.94
2023-04-18T03:47:29.360Z,83.92
2023-04-18T03:50:03.018Z,84.02
2023-04-18T03:52:39.630Z,83.96
2023-04-18T03:55:16.043Z,83.95
2023-04-18T03:57:48.606Z,83.97
2023-04-18T04:00:28.225Z,84.00
2023-04-18T04:03:07.202Z,83.99
2023-04-18T04:05:42.404Z,83.92
2023-04-18T04:08:35.316Z,83.84
2023-04-18T04:11:11.634Z,83.85
2023-04-18T04:13:55.615Z,83.80
2023-04-18T04:16:38.461Z,83.75
2023-04-18T04:19:15.404Z,83.64
2023-04-18T04:22:10.940Z,83.53
2023-04-18T04:24:43.715Z,83.50
2023-04-18T04:27:20.661Z,83.32
2023-04-18T04:29:56.690Z,83.07
2023-04-18T04:32:33.081Z,82.94
2023-04-18T04:35:10.273Z,82.79
2023-04-18T04:37:54.747Z,82.52
2023-04-18T04:40:48.926Z,82.24
2023-04-18T04:43:21.931Z,81.92
2023-04-18T04:45:57.795Z,81.53
2023-04-18T04:48:32.897Z,81.25
2023-04-18T04:51:15.863Z,80.81
2023-04-18T04:53:51.821Z,80.65
2023-04-18T04:56:44.703Z,80.37
2023-04-18T04:59:19.865Z,79.92
2023-04-18T05:01:52.796Z,79.57
2023-04-18T05:04:38.825Z,79.29
2023-04-18T05:07:20.431Z,78.90
2023-04-18T05:09:53.530Z,78.67
2023-04-18T05:12:28.243Z,78.37
2023-04-18T05:15:03.955Z,78.38
2023-04-18T05:17:40.056Z,78.58
2023-04-18T05:20:13.379Z,78.50
2023-04-18T05:22:48.996Z,78.14
2023-04-18T05:25:34.297Z,78.01
2023-04-18T05:28:08.498Z,77.54
2023-04-18T05:30:52.743Z,77.27
2023-04-18T05:33:28.667Z,76.77
2023-04-18T05:36:03.937Z,76.41
2023-04-18T05:38:39.622Z,75.99
2023-04-18T05:41:15.399Z,75.50
2023-04-18T05:44:01.788Z,75.17
2023-04-18T05:46:57.557Z,74.95
2023-04-18T05:49:33.733Z,74.47
2023-04-18T05:52:26.946Z,74.14
2023-04-18T05:55:20.617Z,73.88
2023-04-18T05:57:55.624Z,73.25
2023-04-18T06:00:39.291Z,72.73
2023-04-18T06:03:22.020Z,72.08
2023-04-18T06:06:06.079Z,71.38
2023-04-18T06:08:43.600Z,70.69
2023-04-18T06:11:26.346Z,70.66
2023-04-18T06:14:01.152Z,70.72
2023-04-18T06:16:37.243Z,71.17
2023-04-18T06:19:12.309Z,70.86
2023-04-18T06:21:47.073Z,70.41
2023-04-18T06:24:24.245Z,69.58
2023-04-18T06:26:59.996Z,69.36
2023-04-18T06:29:33.358Z,68.51
2023-04-18T06:32:16.215Z,68.30
2023-04-18T06:34:49.757Z,67.79
2023-04-18T06:37:32.409Z,67.68
2023-04-18T06:40:08.546Z,67.37
2023-04-18T06:42:41.187Z,66.73
2023-04-18T06:45:24.608Z,66.58
2023-04-18T06:47:58.124Z,66.02
2023-04-18T06:50:31.369Z,65.83
2023-04-18T06:53:03.719Z,65.59
2023-04-18T06:55:41.385Z,65.43
2023-04-18T06:58:16.274Z,65.49
2023-04-18T07:00:59.970Z,65.75
2023-04-18T07:03:32.706Z,65.73
2023-04-18T07:06:11.132Z,64.66
2023-04-18T07:08:43.574Z,64.16
2023-04-18T07:11:18.747Z,64.09
2023-04-18T07:13:54.467Z,63.41
2023-04-18T07:16:28.517Z,63.07
2023-04-18T07:19:04.022Z,63.30
2023-04-18T07:21:40.654Z,62.30
2023-04-18T07:24:14.117Z,62.34
2023-04-18T07:26:47.222Z,61.78
2023-04-18T07:29:20.164Z,62.05
2023-04-18T07:31:53.270Z,61.03
2023-04-18T07:34:27.194Z,61.31
2023-04-18T07:36:59.722Z,60.94
2023-04-18T07:39:36.200Z,60.45
2023-04-18T07:42:10.006Z,60.55
2023-04-18T07:44:45.761Z,61.24
2023-04-18T07:47:22.677Z,58.98
2023-04-18T07:49:55.465Z,57.30
2023-04-18T07:52:30.335Z,58.50
2023-04-18T07:55:02.989Z,59.64
2023-04-18T07:57:35.794Z,60.68
2023-04-18T08:00:11.552Z,60.24
2023-04-18T08:02:48.536Z,59.69
2023-04-18T08:05:24.369Z,59.34
2023-04-18T08:07:57.023Z,59.53
2023-04-18T08:10:30.050Z,59.55
2023-04-18T08:13:02.999Z,59.39
2023-04-18T08:15:47.247Z,59.48
2023-04-18T08:18:23.090Z,59.30
2023-04-18T08:21:05.798Z,59.44
2023-04-18T08:23:42.140Z,59.50
2023-04-18T08:26:21.950Z,59.39
2023-04-18T08:29:06.392Z,59.26
2023-04-18T08:31:41.911Z,59.10
2023-04-18T08:34:28.975Z,58.80
2023-04-18T08:37:07.595Z,58.16
2023-04-18T08:39:40.432Z,58.21
2023-04-18T08:42:23.293Z,58.96
2023-04-18T08:44:59.663Z,58.56
2023-04-18T08:47:52.566Z,59.71
2023-04-18T08:50:27.132Z,59.16
2023-04-18T08:53:01.123Z,58.44
2023-04-18T08:55:34.644Z,57.76
2023-04-18T08:58:08.073Z,57.71
2023-04-18T09:00:43.144Z,57.78
2023-04-18T09:03:17.868Z,57.82
2023-04-18T09:06:13.928Z,56.80
2023-04-18T09:09:04.695Z,56.93
2023-04-18T09:11:38.062Z,53.92
2023-04-18T09:14:24.817Z,54.59
2023-04-18T09:17:00.536Z,55.81
2023-04-18T09:19:50.315Z,52.55
2023-04-18T09:22:23.165Z,52.72
2023-04-18T09:24:59.220Z,51.64
2023-04-18T09:27:37.575Z,50.24
2023-04-18T09:30:29.814Z,50.82
2023-04-18T09:33:09.699Z,51.21
2023-04-18T09:35:43.549Z,50.63
2023-04-18T09:38:18.825Z,50.62
2023-04-18T09:41:10.371Z,49.48
2023-04-18T09:43:43.976Z,47.40
2023-04-18T09:46:21.895Z,47.87
2023-04-18T09:48:54.947Z,45.94
2023-04-18T09:51:28.141Z,45.17
2023-04-18T09:54:02.955Z,45.94
2023-04-18T09:56:38.398Z,45.28
2023-04-18T09:59:12.282Z,42.83
2023-04-18T10:01:48.675Z,42.91
2023-04-18T10:04:21.982Z,44.14
2023-04-18T10:06:58.921Z,43.60
2023-04-18T10:09:37.046Z,44.31
2023-04-18T10:12:12.558Z,42.83
2023-04-18T10:14:48.809Z,43.70
2023-04-18T10:17:23.058Z,43.78
2023-04-18T10:20:10.293Z,43.49
2023-04-18T10:22:42.762Z,44.00
2023-04-18T10:25:15.557Z,43.22
2023-04-18T10:28:01.309Z,43.42
2023-04-18T10:30:52.919Z,43.59
2023-04-18T10:33:33.687Z,42.94
2023-04-18T10:36:15.115Z,42.52
2023-04-18T10:38:51.010Z,43.35
2023-04-18T10:41:28.427Z,42.99
2023-04-18T10:44:23.075Z,41.93
2023-04-18T10:47:23.943Z,42.74
2023-04-18T10:50:06.088Z,43.86
2023-04-18T10:52:41.908Z,42.55
2023-04-18T10:55:19.228Z,42.01
2023-04-18T10:57:56.739Z,41.56
2023-04-18T11:00:32.321Z,42.56
2023-04-18T11:03:05.168Z,42.34
2023-04-18T11:05:38.370Z,43.09
2023-04-18T11:08:26.329Z,42.92
2023-04-18T11:11:04.120Z,43.68
2023-04-18T11:14:01.544Z,43.79
2023-04-18T11:16:54.885Z,44.09
2023-04-18T11:19:50.078Z,44.38
2023-04-18T11:22:22.792Z,44.42
2023-04-18T11:25:02.738Z,43.44
2023-04-18T11:27:38.049Z,43.35
2023-04-18T11:30:16.609Z,43.39
2023-04-18T11:32:49.159Z,43.29
2023-04-18T11:35:24.432Z,43.45
2023-04-18T11:38:08.692Z,43.66
2023-04-18T11:40:53.010Z,44.57
2023-04-18T11:43:26.541Z,43.67
2023-04-18T11:46:02.483Z,43.91
2023-04-18T11:48:43.543Z,43.72
2023-04-18T11:51:38.461Z,43.95
2023-04-18T11:54:42.617Z,43.01
2023-04-18T11:57:26.026Z,41.89
2023-04-18T12:00:00.262Z,42.43
2023-04-18T12:02:44.190Z,43.05
2023-04-18T12:05:28.033Z,43.47
2023-04-18T12:08:23.205Z,42.51
2023-04-18T12:10:56.730Z,42.81
2023-04-18T12:13:34.221Z,42.15
2023-04-18T12:16:15.741Z,42.15
2023-04-18T12:18:49.687Z,41.42
2023-04-18T12:21:22.231Z,42.36
2023-04-18T12:23:55.525Z,41.77
2023-04-18T12:26:30.448Z,41.37
2023-04-18T12:29:03.920Z,40.92
2023-04-18T12:31:58.060Z,40.32
2023-04-18T12:34:30.847Z,39.81
2023-04-18T12:37:05.073Z,39.32
2023-04-18T12:39:57.727Z,40.11
2023-04-18T12:42:33.517Z,39.82
2023-04-18T12:45:07.927Z,39.36
2023-04-18T12:47:53.268Z,39.17
2023-04-18T12:50:45.820Z,37.43
2023-04-18T12:53:20.690Z,38.01
2023-04-18T12:56:13.544Z,38.06
2023-04-18T12:59:15.651Z,38.74
2023-04-18T13:01:48.648Z,38.46
2023-04-18T13:04:21.919Z,38.61
2023-04-18T13:06:57.299Z,37.35
2023-04-18T13:09:30.329Z,37.06
2023-04-18T13:12:03.766Z,35.76
2023-04-18T13:14:56.623Z,35.45
2023-04-18T13:17:29.406Z,35.68
2023-04-18T13:20:06.586Z,35.40
2023-04-18T13:22:39.094Z,35.43
2023-04-18T13:25:12.738Z,35.32
2023-04-18T13:27:58.494Z,35.84
2023-04-18T13:30:41.096Z,35.90
2023-04-18T13:33:26.523Z,35.51
2023-04-18T13:36:20.718Z,36.25
2023-04-18T13:38:53.970Z,36.40
2023-04-18T13:41:27.011Z,36.87
2023-04-18T13:44:02.562Z,36.52
2023-04-18T13:46:40.957Z,36.40
2023-04-18T13:49:16.428Z,36.44
2023-04-18T13:51:50.542Z,36.89
2023-04-18T13:54:46.372Z,37.34
2023-04-18T13:57:39.271Z,37.21
2023-04-18T14:00:14.432Z,36.93
2023-04-18T14:02:57.779Z,37.22
2023-04-18T14:05:34.102Z,37.30
2023-04-18T14:08:07.338Z,37.96
2023-04-18T14:10:40.152Z,38.66
2023-04-18T14:13:12.925Z,38.14
2023-04-18T14:15:55.433Z,37.88
2023-04-18T14:18:30.878Z,37.94
2023-04-18T14:21:03.616Z,37.08
2023-04-18T14:23:36.419Z,37.50
2023-04-18T14:26:11.058Z,37.92
2023-04-18T14:28:43.716Z,37.45
2023-04-18T14:31:17.192Z,37.16
2023-04-18T14:33:49.567Z,37.03
2023-04-18T14:36:24.834Z,37.19
2023-04-18T14:38:57.882Z,36.94
2023-04-18T14:41:31.056Z,37.83
2023-04-18T14:44:04.388Z,37.59
2023-04-18T14:46:37.283Z,37.50
2023-04-18T14:49:13.496Z,36.75
2023-04-18T14:51:50.924Z,37.43
2023-04-18T14:54:26.635Z,37.24
2023-04-18T14:56:59.066Z,37.63
2023-04-18T14:59:31.858Z,37.74
2023-04-18T15:02:05.121Z,36.93
2023-04-18T15:04:38.068Z,37.19
2023-04-18T15:07:11.028Z,37.75
2023-04-18T15:09:46.011Z,38.41
2023-04-18T15:12:23.386Z,39.08
2023-04-18T15:14:56.611Z,39.71
2023-04-18T15:17:29.509Z,39.22
2023-04-18T15:20:02.679Z,39.25
2023-04-18T15:22:35.825Z,38.70
2023-04-18T15:25:16.341Z,38.86
2023-04-18T15:27:49.205Z,39.77
2023-04-18T15:30:22.179Z,38.98
2023-04-18T15:32:55.749Z,38.43
2023-04-18T15:35:32.683Z,38.62
2023-04-18T15:38:05.214Z,39.06
2023-04-18T15:40:37.963Z,39.71
2023-04-18T15:43:11.105Z,40.07
2023-04-18T15:45:47.059Z,39.57
2023-04-18T15:48:22.255Z,39.74
2023-04-18T15:50:57.621Z,39.96
2023-04-18T15:53:33.260Z,40.29
2023-04-18T15:56:11.380Z,40.41
2023-04-18T15:58:44.635Z,41.43
2023-04-18T16:01:24.636Z,41.67
2023-04-18T16:04:00.531Z,41.99
2023-04-18T16:06:33.854Z,42.39
2023-04-18T16:09:09.983Z,42.64
2023-04-18T16:11:53.860Z,43.08
2023-04-18T16:14:28.819Z,43.53
2023-04-18T16:17:03.323Z,43.16
2023-04-18T16:19:58.806Z,43.74
2023-04-18T16:22:42.439Z,44.18
2023-04-18T16:25:17.330Z,44.30
2023-04-18T16:27:49.624Z,44.52
2023-04-18T16:30:22.513Z,44.43
2023-04-18T16:32:56.137Z,45.06
2023-04-18T16:35:49.888Z,45.35
2023-04-18T16:38:32.693Z,45.38
2023-04-18T16:41:08.863Z,45.30
2023-04-18T16:43:45.929Z,45.83
2023-04-18T16:46:23.614Z,46.17
2023-04-18T16:49:01.563Z,46.67
2023-04-18T16:51:38.701Z,46.89
2023-04-18T16:54:17.268Z,47.33
2023-04-18T16:56:50.016Z,47.40
2023-04-18T16:59:33.657Z,48.04
2023-04-18T17:02:09.940Z,48.39
2023-04-18T17:04:42.824Z,48.68
2023-04-18T17:07:18.505Z,49.08
2023-04-18T17:09:53.280Z,49.53
2023-04-18T17:12:29.080Z,49.56
2023-04-18T17:15:12.219Z,49.98
2023-04-18T17:17:45.019Z,50.43
2023-04-18T17:20:18.950Z,50.70
2023-04-18T17:22:51.942Z,50.92
2023-04-18T17:25:28.102Z,50.95
2023-04-18T17:28:02.314Z,51.16
2023-04-18T17:30:35.049Z,51.57
2023-04-18T17:33:07.822Z,51.94
2023-04-18T17:35:45.471Z,52.22
2023-04-18T17:38:19.640Z,52.40
2023-04-18T17:41:02.704Z,52.26
2023-04-18T17:43:35.810Z,52.95
2023-04-18T17:46:10.605Z,53.13
2023-04-18T17:48:43.098Z,53.12
2023-04-18T17:51:19.362Z,53.35
2023-04-18T17:53:52.298Z,53.58
2023-04-18T17:56:24.774Z,53.96
2023-04-18T17:59:02.224Z,54.13
2023-04-18T18:01:34.864Z,54.42
2023-04-18T18:04:08.282Z,54.65
2023-04-18T18:06:42.317Z,54.83
2023-04-18T18:09:15.135Z,55.07
2023-04-18T18:11:47.898Z,55.34
2023-04-18T18:14:21.451Z,55.28
2023-04-18T18:16:57.064Z,55.45
2023-04-18T18:19:29.750Z,55.71
2023-04-18T18:22:04.324Z,55.83
2023-04-18T18:24:37.576Z,56.06
2023-04-18T18:27:11.018Z,56.35
2023-04-18T18:29:44.106Z,56.53
2023-04-18T18:32:20.541Z,56.61
2023-04-18T18:34:53.175Z,57.22
2023-04-18T18:37:28.594Z,57.70
2023-04-18T18:40:12.359Z,57.99
2023-04-18T18:42:51.472Z,58.45
2023-04-18T18:45:24.416Z,58.89
2023-04-18T18:47:58.235Z,59.70
2023-04-18T18:50:33.631Z,60.21
2023-04-18T18:53:07.142Z,60.80
2023-04-18T18:55:51.358Z,61.14
2023-04-18T18:58:26.282Z,61.44
2023-04-18T19:01:08.405Z,62.44
2023-04-18T19:03:51.602Z,63.20
2023-04-18T19:06:27.669Z,63.17
2023-04-18T19:09:00.301Z,63.01
2023-04-18T19:11:35.654Z,62.78
2023-04-18T19:14:09.491Z,62.61
2023-04-18T19:17:02.098Z,62.45
2023-04-18T19:19:38.655Z,62.14
2023-04-18T19:22:23.212Z,61.97
2023-04-18T19:24:55.769Z,61.91
2023-04-18T19:27:28.419Z,61.76
2023-04-18T19:30:01.262Z,61.50
2023-04-18T19:32:34.158Z,61.56
2023-04-18T19:35:11.879Z,61.50
2023-04-18T19:37:44.464Z,61.41
2023-04-18T19:40:19.906Z,61.32
2023-04-18T19:42:55.603Z,61.23
2023-04-18T19:45:28.795Z,61.15
2023-04-18T19:48:01.878Z,61.12
2023-04-18T19:50:34.934Z,61.13
2023-04-18T19:53:07.567Z,61.19
2023-04-18T19:55:45.517Z,61.27
2023-04-18T19:58:45.014Z,61.14
2023-04-18T20:01:18.890Z,61.57
2023-04-18T20:03:58.841Z,61.76
2023-04-18T20:06:34.462Z,61.77
2023-04-18T20:09:27.170Z,62.02
2023-04-18T20:12:02.782Z,62.20
2023-04-18T20:14:35.847Z,62.28
2023-04-18T20:17:08.428Z,62.45
2023-04-18T20:19:52.172Z,62.48
2023-04-18T20:22:34.840Z,62.56
2023-04-18T20:25:08.103Z,62.57
2023-04-18T20:27:40.880Z,62.65
2023-04-18T20:30:14.222Z,62.77
2023-04-18T20:32:46.667Z,63.04
2023-04-18T20:35:20.195Z,63.36
2023-04-18T20:38:03.691Z,63.35
2023-04-18T20:40:38.895Z,63.38
2023-04-18T20:43:11.301Z,63.60
2023-04-18T20:45:43.784Z,63.62
2023-04-18T20:48:16.460Z,63.78
2023-04-18T20:50:52.140Z,64.00
2023-04-18T20:53:29.094Z,64.03
2023-04-18T20:56:04.109Z,64.28
2023-04-18T20:58:39.684Z,64.22
2023-04-18T21:01:12.026Z,64.29
2023-04-18T21:03:52.727Z,64.08
2023-04-18T21:06:25.490Z,64.20
2023-04-18T21:08:58.183Z,64.48
2023-04-18T21:11:30.604Z,64.51
2023-04-18T21:14:03.839Z,64.38
2023-04-18T21:16:40.151Z,64.43
2023-04-18T21:19:13.335Z,64.66
2023-04-18T21:21:46.159Z,64.67
2023-04-18T21:24:22.005Z,64.77
2023-04-18T21:26:57.878Z,64.71
2023-04-18T21:29:32.825Z,64.62
2023-04-18T21:32:06.333Z,64.59
2023-04-18T21:34:41.395Z,64.82
2023-04-18T21:37:13.815Z,64.84
2023-04-18T21:39:46.566Z,65.03
2023-04-18T21:42:22.163Z,65.28
2023-04-18T21:44:57.296Z,65.12
2023-04-18T21:47:29.981Z,65.40
2023-04-18T21:50:02.712Z,65.47
2023-04-18T21:52:35.425Z,65.48
2023-04-18T21:55:11.431Z,65.79
2023-04-18T21:57:44.317Z,66.08
2023-04-18T22:00:20.576Z,66.17
2023-04-18T22:02:56.481Z,66.25
2023-04-18T22:05:49.908Z,66.28
2023-04-18T22:08:23.059Z,66.35
2023-04-18T22:11:16.920Z,66.39
2023-04-18T22:13:50.470Z,66.39
2023-04-18T22:16:26.021Z,66.52
2023-04-18T22:18:58.617Z,66.60
2023-04-18T22:21:31.473Z,66.57
2023-04-18T22:24:13.606Z,66.51
2023-04-18T22:26:49.496Z,66.55
2023-04-18T22:29:22.396Z,66.54
2023-04-18T22:31:58.762Z,66.44
2023-04-18T22:34:33.661Z,66.53
2023-04-18T22:37:06.581Z,66.62
2023-04-18T22:39:49.055Z,66.65
2023-04-18T22:42:23.095Z,66.57
2023-04-18T22:44:57.912Z,66.75
2023-04-18T22:47:38.310Z,66.70
2023-04-18T22:50:13.288Z,66.82
2023-04-18T22:52:57.492Z,66.77
2023-04-18T22:55:30.232Z,66.82
2023-04-18T22:58:02.703Z,66.75
2023-04-18T23:00:35.829Z,66.72
2023-04-18T23:03:13.276Z,66.72
2023-04-18T23:05:46.073Z,66.71
2023-04-18T23:08:22.740Z,66.74
2023-04-18T23:10:55.740Z,66.61
2023-04-18T23:13:28.295Z,66.65
2023-04-18T23:16:12.485Z,66.53
2023-04-18T23:19:06.093Z,66.66
2023-04-18T23:21:49.949Z,66.80
2023-04-18T23:24:22.636Z,66.79
2023-04-18T23:26:58.694Z,66.95
2023-04-18T23:29:31.273Z,67.03
2023-04-18T23:32:15.198Z,66.95
2023-04-18T23:34:50.196Z,66.92
2023-04-18T23:37:25.835Z,67.13
2023-04-18T23:39:58.538Z,67.23
2023-04-18T23:42:35.859Z,67.28
2023-04-18T23:45:09.611Z,67.34
2023-04-18T23:47:42.622Z,67.48
2023-04-18T23:50:16.043Z,67.49
2023-04-18T23:52:52.677Z,67.68
2023-04-18T23:55:25.352Z,67.76
2023-04-18T23:58:01.387Z,67.92
